sensor_id;sensor_type;location;lat;lon;timestamp;P1;durP1;ratioP1;P2;durP2;ratioP2
2494;SDS011;1258;48.336;14.322;2023-10-09T00:01:42;1.43;;;0.80;;
2494;SDS011;1258;48.336;14.322;2023-10-09T00:04:09;1.40;;;0.90;;
2494;SDS011;1258;48.336;14.322;2023-10-09T00:06:37;1.50;;;0.90;;
2494;SDS011;1258;48.336;14.322;2023-10-09T00:09:05;1.43;;;0.83;;
2494;SDS011;1258;48.336;14.322;2023-10-09T00:11:42;1.30;;;0.70;;
2494;SDS011;1258;48.336;14.322;2023-10-09T00:14:10;1.33;;;0.70;;
2494;SDS011;1258;48.336;14.322;2023-10-09T00:16:37;1.30;;;0.83;;
2494;SDS011;1258;48.336;14.322;2023-10-09T00:19:11;1.17;;;0.60;;
2494;SDS011;1258;48.336;14.322;2023-10-09T00:21:45;1.20;;;0.60;;
2494;SDS011;1258;48.336;14.322;2023-10-09T00:24:14;1.20;;;0.40;;
2494;SDS011;1258;48.336;14.322;2023-10-09T00:26:48;1.10;;;0.50;;
2494;SDS011;1258;48.336;14.322;2023-10-09T00:29:16;1.10;;;0.50;;
2494;SDS011;1258;48.336;14.322;2023-10-09T00:31:48;1.20;;;0.53;;
2494;SDS011;1258;48.336;14.322;2023-10-09T00:34:21;1.30;;;0.50;;
2494;SDS011;1258;48.336;14.322;2023-10-09T00:36:51;1.30;;;0.60;;
2494;SDS011;1258;48.336;14.322;2023-10-09T00:39:20;1.40;;;0.70;;
2494;SDS011;1258;48.336;14.322;2023-10-09T00:42:07;1.30;;;0.70;;
2494;SDS011;1258;48.336;14.322;2023-10-09T00:44:37;1.20;;;0.60;;
2494;SDS011;1258;48.336;14.322;2023-10-09T00:47:07;1.60;;;0.70;;
2494;SDS011;1258;48.336;14.322;2023-10-09T00:49:52;1.10;;;0.50;;
2494;SDS011;1258;48.336;14.322;2023-10-09T00:52:25;1.97;;;0.90;;
2494;SDS011;1258;48.336;14.322;2023-10-09T00:55:06;1.20;;;0.63;;
2494;SDS011;1258;48.336;14.322;2023-10-09T00:57:39;1.40;;;0.87;;
2494;SDS011;1258;48.336;14.322;2023-10-09T01:00:13;1.20;;;0.70;;
2494;SDS011;1258;48.336;14.322;2023-10-09T01:02:57;1.37;;;0.57;;
2494;SDS011;1258;48.336;14.322;2023-10-09T01:05:36;1.17;;;0.60;;
2494;SDS011;1258;48.336;14.322;2023-10-09T01:08:10;1.33;;;0.57;;
2494;SDS011;1258;48.336;14.322;2023-10-09T01:10:50;1.30;;;0.50;;
2494;SDS011;1258;48.336;14.322;2023-10-09T01:13:21;1.30;;;0.60;;
2494;SDS011;1258;48.336;14.322;2023-10-09T01:15:53;1.20;;;0.53;;
2494;SDS011;1258;48.336;14.322;2023-10-09T01:18:24;1.40;;;0.90;;
2494;SDS011;1258;48.336;14.322;2023-10-09T01:21:01;1.30;;;0.60;;
2494;SDS011;1258;48.336;14.322;2023-10-09T01:23:30;1.47;;;0.60;;
2494;SDS011;1258;48.336;14.322;2023-10-09T01:25:56;1.10;;;0.50;;
2494;SDS011;1258;48.336;14.322;2023-10-09T01:28:23;1.10;;;0.53;;
2494;SDS011;1258;48.336;14.322;2023-10-09T01:30:51;1.30;;;0.60;;
2494;SDS011;1258;48.336;14.322;2023-10-09T01:33:20;1.20;;;0.63;;
2494;SDS011;1258;48.336;14.322;2023-10-09T01:35:49;1.20;;;0.60;;
2494;SDS011;1258;48.336;14.322;2023-10-09T01:38:21;1.10;;;0.53;;
2494;SDS011;1258;48.336;14.322;2023-10-09T01:40:58;1.20;;;0.60;;
2494;SDS011;1258;48.336;14.322;2023-10-09T01:43:32;1.20;;;0.63;;
2494;SDS011;1258;48.336;14.322;2023-10-09T01:46:00;1.20;;;0.60;;
2494;SDS011;1258;48.336;14.322;2023-10-09T01:48:29;1.20;;;0.50;;
2494;SDS011;1258;48.336;14.322;2023-10-09T01:51:00;1.20;;;0.60;;
2494;SDS011;1258;48.336;14.322;2023-10-09T01:53:30;1.37;;;0.60;;
2494;SDS011;1258;48.336;14.322;2023-10-09T01:56:08;1.30;;;0.50;;
2494;SDS011;1258;48.336;14.322;2023-10-09T01:58:40;1.17;;;0.53;;
2494;SDS011;1258;48.336;14.322;2023-10-09T02:01:08;1.10;;;0.50;;
2494;SDS011;1258;48.336;14.322;2023-10-09T02:03:35;1.07;;;0.40;;
2494;SDS011;1258;48.336;14.322;2023-10-09T02:06:03;1.13;;;0.60;;
2494;SDS011;1258;48.336;14.322;2023-10-09T02:08:43;1.00;;;0.33;;
2494;SDS011;1258;48.336;14.322;2023-10-09T02:11:15;1.40;;;0.60;;
2494;SDS011;1258;48.336;14.322;2023-10-09T02:13:49;1.10;;;0.50;;
2494;SDS011;1258;48.336;14.322;2023-10-09T02:16:27;1.10;;;0.50;;
2494;SDS011;1258;48.336;14.322;2023-10-09T02:18:54;1.10;;;0.40;;
2494;SDS011;1258;48.336;14.322;2023-10-09T02:21:24;1.20;;;0.53;;
2494;SDS011;1258;48.336;14.322;2023-10-09T02:23:59;1.10;;;0.50;;
2494;SDS011;1258;48.336;14.322;2023-10-09T02:26:31;1.10;;;0.40;;
2494;SDS011;1258;48.336;14.322;2023-10-09T02:29:20;1.20;;;0.50;;
2494;SDS011;1258;48.336;14.322;2023-10-09T02:31:49;1.10;;;0.40;;
2494;SDS011;1258;48.336;14.322;2023-10-09T02:34:18;1.10;;;0.50;;
2494;SDS011;1258;48.336;14.322;2023-10-09T02:36:49;1.00;;;0.40;;
2494;SDS011;1258;48.336;14.322;2023-10-09T02:39:22;1.00;;;0.40;;
2494;SDS011;1258;48.336;14.322;2023-10-09T02:41:53;1.10;;;0.40;;
2494;SDS011;1258;48.336;14.322;2023-10-09T02:44:27;1.10;;;0.30;;
2494;SDS011;1258;48.336;14.322;2023-10-09T02:46:57;1.00;;;0.40;;
2494;SDS011;1258;48.336;14.322;2023-10-09T02:49:27;1.20;;;0.50;;
2494;SDS011;1258;48.336;14.322;2023-10-09T02:51:54;1.00;;;0.30;;
2494;SDS011;1258;48.336;14.322;2023-10-09T02:54:21;1.03;;;0.37;;
2494;SDS011;1258;48.336;14.322;2023-10-09T02:57:01;1.00;;;0.50;;
2494;SDS011;1258;48.336;14.322;2023-10-09T02:59:32;1.00;;;0.33;;
2494;SDS011;1258;48.336;14.322;2023-10-09T03:01:59;1.10;;;0.50;;
2494;SDS011;1258;48.336;14.322;2023-10-09T03:04:26;1.10;;;0.50;;
2494;SDS011;1258;48.336;14.322;2023-10-09T03:06:56;1.20;;;0.50;;
2494;SDS011;1258;48.336;14.322;2023-10-09T03:09:23;1.00;;;0.30;;
2494;SDS011;1258;48.336;14.322;2023-10-09T03:11:53;1.03;;;0.40;;
2494;SDS011;1258;48.336;14.322;2023-10-09T03:14:28;1.00;;;0.30;;
2494;SDS011;1258;48.336;14.322;2023-10-09T03:16:56;1.10;;;0.50;;
2494;SDS011;1258;48.336;14.322;2023-10-09T03:19:24;1.20;;;0.40;;
2494;SDS011;1258;48.336;14.322;2023-10-09T03:21:53;1.00;;;0.30;;
2494;SDS011;1258;48.336;14.322;2023-10-09T03:24:22;1.03;;;0.40;;
2494;SDS011;1258;48.336;14.322;2023-10-09T03:26:49;1.10;;;0.50;;
2494;SDS011;1258;48.336;14.322;2023-10-09T03:29:21;1.00;;;0.40;;
2494;SDS011;1258;48.336;14.322;2023-10-09T03:31:49;1.07;;;0.40;;
2494;SDS011;1258;48.336;14.322;2023-10-09T03:34:16;1.00;;;0.40;;
2494;SDS011;1258;48.336;14.322;2023-10-09T03:36:44;1.10;;;0.40;;
2494;SDS011;1258;48.336;14.322;2023-10-09T03:39:16;1.10;;;0.43;;
2494;SDS011;1258;48.336;14.322;2023-10-09T03:41:50;1.13;;;0.50;;
2494;SDS011;1258;48.336;14.322;2023-10-09T03:44:19;1.07;;;0.40;;
2494;SDS011;1258;48.336;14.322;2023-10-09T03:46:48;1.10;;;0.40;;
2494;SDS011;1258;48.336;14.322;2023-10-09T03:49:16;1.00;;;0.30;;
2494;SDS011;1258;48.336;14.322;2023-10-09T03:51:48;1.20;;;0.50;;
2494;SDS011;1258;48.336;14.322;2023-10-09T03:54:16;2.20;;;0.50;;
2494;SDS011;1258;48.336;14.322;2023-10-09T03:56:45;1.00;;;0.30;;
2494;SDS011;1258;48.336;14.322;2023-10-09T03:59:15;1.00;;;0.40;;
2494;SDS011;1258;48.336;14.322;2023-10-09T04:01:42;1.00;;;0.33;;
2494;SDS011;1258;48.336;14.322;2023-10-09T04:04:10;1.00;;;0.30;;
2494;SDS011;1258;48.336;14.322;2023-10-09T04:06:39;1.00;;;0.30;;
2494;SDS011;1258;48.336;14.322;2023-10-09T04:09:07;1.10;;;0.40;;
2494;SDS011;1258;48.336;14.322;2023-10-09T04:11:54;1.13;;;0.50;;
2494;SDS011;1258;48.336;14.322;2023-10-09T04:14:45;1.20;;;0.60;;
2494;SDS011;1258;48.336;14.322;2023-10-09T04:17:19;1.57;;;0.40;;
2494;SDS011;1258;48.336;14.322;2023-10-09T04:20:00;1.70;;;0.60;;
2494;SDS011;1258;48.336;14.322;2023-10-09T04:23:03;1.10;;;0.47;;
2494;SDS011;1258;48.336;14.322;2023-10-09T04:25:30;1.20;;;0.50;;
2494;SDS011;1258;48.336;14.322;2023-10-09T04:28:07;1.10;;;0.50;;
2494;SDS011;1258;48.336;14.322;2023-10-09T04:30:34;1.07;;;0.40;;
2494;SDS011;1258;48.336;14.322;2023-10-09T04:33:05;1.30;;;0.57;;
2494;SDS011;1258;48.336;14.322;2023-10-09T04:35:49;1.87;;;0.70;;
2494;SDS011;1258;48.336;14.322;2023-10-09T04:38:36;1.40;;;0.60;;
2494;SDS011;1258;48.336;14.322;2023-10-09T04:41:05;1.10;;;0.50;;
2494;SDS011;1258;48.336;14.322;2023-10-09T04:43:33;1.07;;;0.40;;
2494;SDS011;1258;48.336;14.322;2023-10-09T04:45:58;1.10;;;0.50;;
2494;SDS011;1258;48.336;14.322;2023-10-09T04:48:32;14.33;;;1.50;;
2494;SDS011;1258;48.336;14.322;2023-10-09T04:50:59;1.20;;;0.50;;
2494;SDS011;1258;48.336;14.322;2023-10-09T04:53:44;1.20;;;0.60;;
2494;SDS011;1258;48.336;14.322;2023-10-09T04:56:15;1.13;;;0.47;;
2494;SDS011;1258;48.336;14.322;2023-10-09T04:58:41;1.23;;;0.40;;
2494;SDS011;1258;48.336;14.322;2023-10-09T05:01:09;1.40;;;0.50;;
2494;SDS011;1258;48.336;14.322;2023-10-09T05:03:40;1.40;;;0.50;;
2494;SDS011;1258;48.336;14.322;2023-10-09T05:06:11;1.33;;;0.60;;
2494;SDS011;1258;48.336;14.322;2023-10-09T05:09:07;1.10;;;0.50;;
2494;SDS011;1258;48.336;14.322;2023-10-09T05:11:45;1.27;;;0.60;;
2494;SDS011;1258;48.336;14.322;2023-10-09T05:14:40;1.20;;;0.50;;
2494;SDS011;1258;48.336;14.322;2023-10-09T05:17:24;1.20;;;0.50;;
2494;SDS011;1258;48.336;14.322;2023-10-09T05:19:51;1.30;;;0.70;;
2494;SDS011;1258;48.336;14.322;2023-10-09T05:22:42;1.70;;;0.90;;
2494;SDS011;1258;48.336;14.322;2023-10-09T05:25:22;2.07;;;0.97;;
2494;SDS011;1258;48.336;14.322;2023-10-09T05:28:16;1.30;;;0.63;;
2494;SDS011;1258;48.336;14.322;2023-10-09T05:30:56;1.37;;;0.80;;
2494;SDS011;1258;48.336;14.322;2023-10-09T05:33:32;1.30;;;0.63;;
2494;SDS011;1258;48.336;14.322;2023-10-09T05:35:59;1.20;;;0.60;;
2494;SDS011;1258;48.336;14.322;2023-10-09T05:39:01;1.40;;;0.90;;
2494;SDS011;1258;48.336;14.322;2023-10-09T05:41:45;1.40;;;0.83;;
2494;SDS011;1258;48.336;14.322;2023-10-09T05:44:17;1.60;;;1.23;;
2494;SDS011;1258;48.336;14.322;2023-10-09T05:47:02;1.60;;;0.87;;
2494;SDS011;1258;48.336;14.322;2023-10-09T05:49:47;1.50;;;0.90;;
2494;SDS011;1258;48.336;14.322;2023-10-09T05:52:34;1.37;;;0.77;;
2494;SDS011;1258;48.336;14.322;2023-10-09T05:55:20;1.30;;;0.60;;
2494;SDS011;1258;48.336;14.322;2023-10-09T05:58:06;1.40;;;0.70;;
2494;SDS011;1258;48.336;14.322;2023-10-09T06:01:05;1.20;;;0.60;;
2494;SDS011;1258;48.336;14.322;2023-10-09T06:04:04;1.43;;;0.80;;
2494;SDS011;1258;48.336;14.322;2023-10-09T06:06:40;1.50;;;0.70;;
2494;SDS011;1258;48.336;14.322;2023-10-09T06:09:11;1.30;;;0.70;;
2494;SDS011;1258;48.336;14.322;2023-10-09T06:11:57;1.30;;;0.70;;
2494;SDS011;1258;48.336;14.322;2023-10-09T06:14:41;1.30;;;0.70;;
2494;SDS011;1258;48.336;14.322;2023-10-09T06:17:29;1.30;;;0.60;;
2494;SDS011;1258;48.336;14.322;2023-10-09T06:20:08;1.37;;;0.60;;
2494;SDS011;1258;48.336;14.322;2023-10-09T06:22:57;1.30;;;0.80;;
2494;SDS011;1258;48.336;14.322;2023-10-09T06:25:23;1.40;;;0.70;;
2494;SDS011;1258;48.336;14.322;2023-10-09T06:27:59;1.23;;;0.70;;
2494;SDS011;1258;48.336;14.322;2023-10-09T06:30:26;1.30;;;0.60;;
2494;SDS011;1258;48.336;14.322;2023-10-09T06:32:53;2.80;;;0.80;;
2494;SDS011;1258;48.336;14.322;2023-10-09T06:35:45;1.40;;;0.70;;
2494;SDS011;1258;48.336;14.322;2023-10-09T06:38:19;1.30;;;0.67;;
2494;SDS011;1258;48.336;14.322;2023-10-09T06:40:49;2.17;;;0.90;;
2494;SDS011;1258;48.336;14.322;2023-10-09T06:43:50;1.50;;;0.80;;
2494;SDS011;1258;48.336;14.322;2023-10-09T06:46:18;1.90;;;1.00;;
2494;SDS011;1258;48.336;14.322;2023-10-09T06:49:09;3.13;;;1.07;;
2494;SDS011;1258;48.336;14.322;2023-10-09T06:51:56;1.50;;;1.00;;
2494;SDS011;1258;48.336;14.322;2023-10-09T06:54:39;1.20;;;0.60;;
2494;SDS011;1258;48.336;14.322;2023-10-09T06:57:14;1.30;;;0.60;;
2494;SDS011;1258;48.336;14.322;2023-10-09T07:00:04;1.37;;;0.90;;
2494;SDS011;1258;48.336;14.322;2023-10-09T07:02:49;1.40;;;0.80;;
2494;SDS011;1258;48.336;14.322;2023-10-09T07:05:18;1.70;;;1.17;;
2494;SDS011;1258;48.336;14.322;2023-10-09T07:07:45;1.63;;;1.00;;
2494;SDS011;1258;48.336;14.322;2023-10-09T07:10:20;1.70;;;1.20;;
2494;SDS011;1258;48.336;14.322;2023-10-09T07:12:58;1.67;;;0.87;;
2494;SDS011;1258;48.336;14.322;2023-10-09T07:15:28;1.60;;;1.03;;
2494;SDS011;1258;48.336;14.322;2023-10-09T07:18:27;1.80;;;1.07;;
2494;SDS011;1258;48.336;14.322;2023-10-09T07:21:14;2.13;;;1.20;;
2494;SDS011;1258;48.336;14.322;2023-10-09T07:23:52;1.77;;;1.00;;
2494;SDS011;1258;48.336;14.322;2023-10-09T07:26:23;1.93;;;1.23;;
2494;SDS011;1258;48.336;14.322;2023-10-09T07:29:02;4.00;;;2.13;;
2494;SDS011;1258;48.336;14.322;2023-10-09T07:31:42;4.33;;;2.73;;
2494;SDS011;1258;48.336;14.322;2023-10-09T07:34:10;2.40;;;2.10;;
2494;SDS011;1258;48.336;14.322;2023-10-09T07:36:55;2.53;;;2.30;;
2494;SDS011;1258;48.336;14.322;2023-10-09T07:39:22;3.30;;;2.27;;
2494;SDS011;1258;48.336;14.322;2023-10-09T07:41:59;2.10;;;1.40;;
2494;SDS011;1258;48.336;14.322;2023-10-09T07:44:40;1.70;;;0.80;;
2494;SDS011;1258;48.336;14.322;2023-10-09T07:47:19;1.40;;;0.80;;
2494;SDS011;1258;48.336;14.322;2023-10-09T07:49:58;1.60;;;0.90;;
2494;SDS011;1258;48.336;14.322;2023-10-09T07:52:27;1.90;;;1.30;;
2494;SDS011;1258;48.336;14.322;2023-10-09T07:54:54;2.10;;;1.53;;
2494;SDS011;1258;48.336;14.322;2023-10-09T07:57:28;3.43;;;2.47;;
2494;SDS011;1258;48.336;14.322;2023-10-09T08:00:03;2.67;;;1.90;;
2494;SDS011;1258;48.336;14.322;2023-10-09T08:03:00;2.47;;;1.50;;
2494;SDS011;1258;48.336;14.322;2023-10-09T08:05:28;2.03;;;1.20;;
2494;SDS011;1258;48.336;14.322;2023-10-09T08:07:59;2.00;;;1.40;;
2494;SDS011;1258;48.336;14.322;2023-10-09T08:10:41;2.20;;;1.27;;
2494;SDS011;1258;48.336;14.322;2023-10-09T08:13:24;2.23;;;1.20;;
2494;SDS011;1258;48.336;14.322;2023-10-09T08:16:08;2.23;;;1.10;;
2494;SDS011;1258;48.336;14.322;2023-10-09T08:18:43;5.27;;;1.80;;
2494;SDS011;1258;48.336;14.322;2023-10-09T08:21:10;3.20;;;1.70;;
2494;SDS011;1258;48.336;14.322;2023-10-09T08:24:06;1.80;;;1.37;;
2494;SDS011;1258;48.336;14.322;2023-10-09T08:26:52;1.50;;;1.00;;
2494;SDS011;1258;48.336;14.322;2023-10-09T08:29:38;1.40;;;0.70;;
2494;SDS011;1258;48.336;14.322;2023-10-09T08:32:11;2.10;;;1.70;;
2494;SDS011;1258;48.336;14.322;2023-10-09T08:34:58;2.80;;;2.00;;
2494;SDS011;1258;48.336;14.322;2023-10-09T08:37:24;2.50;;;1.70;;
2494;SDS011;1258;48.336;14.322;2023-10-09T08:39:51;4.73;;;2.20;;
2494;SDS011;1258;48.336;14.322;2023-10-09T08:42:19;3.73;;;1.90;;
2494;SDS011;1258;48.336;14.322;2023-10-09T08:44:48;1.87;;;1.17;;
2494;SDS011;1258;48.336;14.322;2023-10-09T08:47:15;2.93;;;1.77;;
2494;SDS011;1258;48.336;14.322;2023-10-09T08:49:42;4.20;;;2.27;;
2494;SDS011;1258;48.336;14.322;2023-10-09T08:52:12;2.50;;;2.00;;
2494;SDS011;1258;48.336;14.322;2023-10-09T08:54:40;2.67;;;1.60;;
2494;SDS011;1258;48.336;14.322;2023-10-09T08:57:10;1.97;;;1.60;;
2494;SDS011;1258;48.336;14.322;2023-10-09T08:59:40;2.00;;;1.30;;
2494;SDS011;1258;48.336;14.322;2023-10-09T09:02:08;2.37;;;1.80;;
2494;SDS011;1258;48.336;14.322;2023-10-09T09:04:36;2.97;;;2.00;;
2494;SDS011;1258;48.336;14.322;2023-10-09T09:07:05;2.87;;;1.87;;
2494;SDS011;1258;48.336;14.322;2023-10-09T09:09:34;3.80;;;2.67;;
2494;SDS011;1258;48.336;14.322;2023-10-09T09:12:00;3.10;;;2.57;;
2494;SDS011;1258;48.336;14.322;2023-10-09T09:14:37;7.23;;;2.93;;
2494;SDS011;1258;48.336;14.322;2023-10-09T09:17:06;4.17;;;2.50;;
2494;SDS011;1258;48.336;14.322;2023-10-09T09:19:36;3.23;;;2.37;;
2494;SDS011;1258;48.336;14.322;2023-10-09T09:22:04;3.17;;;2.30;;
2494;SDS011;1258;48.336;14.322;2023-10-09T09:24:41;3.07;;;1.93;;
2494;SDS011;1258;48.336;14.322;2023-10-09T09:27:43;2.60;;;2.00;;
2494;SDS011;1258;48.336;14.322;2023-10-09T09:30:24;3.93;;;2.53;;
2494;SDS011;1258;48.336;14.322;2023-10-09T09:32:58;2.93;;;2.27;;
2494;SDS011;1258;48.336;14.322;2023-10-09T09:38:29;3.23;;;2.33;;
2494;SDS011;1258;48.336;14.322;2023-10-09T09:41:08;3.30;;;2.57;;
2494;SDS011;1258;48.336;14.322;2023-10-09T09:43:36;3.30;;;2.07;;
2494;SDS011;1258;48.336;14.322;2023-10-09T09:46:06;3.53;;;2.30;;
2494;SDS011;1258;48.336;14.322;2023-10-09T09:48:39;7.20;;;2.30;;
2494;SDS011;1258;48.336;14.322;2023-10-09T09:51:09;3.13;;;2.53;;
2494;SDS011;1258;48.336;14.322;2023-10-09T09:53:39;3.33;;;2.70;;
2494;SDS011;1258;48.336;14.322;2023-10-09T09:56:06;6.83;;;2.57;;
2494;SDS011;1258;48.336;14.322;2023-10-09T09:58:41;3.90;;;2.40;;
2494;SDS011;1258;48.336;14.322;2023-10-09T10:01:12;3.20;;;2.60;;
2494;SDS011;1258;48.336;14.322;2023-10-09T10:03:50;3.73;;;2.17;;
2494;SDS011;1258;48.336;14.322;2023-10-09T10:06:21;3.60;;;2.40;;
2494;SDS011;1258;48.336;14.322;2023-10-09T10:08:51;2.80;;;2.07;;
2494;SDS011;1258;48.336;14.322;2023-10-09T10:14:10;3.33;;;2.20;;
2494;SDS011;1258;48.336;14.322;2023-10-09T10:17:03;2.60;;;2.00;;
2494;SDS011;1258;48.336;14.322;2023-10-09T10:20:00;5.20;;;2.63;;
2494;SDS011;1258;48.336;14.322;2023-10-09T10:22:50;3.43;;;2.37;;
2494;SDS011;1258;48.336;14.322;2023-10-09T10:25:33;4.07;;;2.60;;
2494;SDS011;1258;48.336;14.322;2023-10-09T10:31:03;3.97;;;2.03;;
2494;SDS011;1258;48.336;14.322;2023-10-09T10:36:32;3.13;;;2.13;;
2494;SDS011;1258;48.336;14.322;2023-10-09T10:39:00;4.40;;;2.50;;
2494;SDS011;1258;48.336;14.322;2023-10-09T10:41:30;3.33;;;2.43;;
2494;SDS011;1258;48.336;14.322;2023-10-09T10:44:03;3.27;;;2.13;;
2494;SDS011;1258;48.336;14.322;2023-10-09T10:46:44;4.67;;;2.93;;
2494;SDS011;1258;48.336;14.322;2023-10-09T10:49:16;2.90;;;1.90;;
2494;SDS011;1258;48.336;14.322;2023-10-09T10:51:46;6.10;;;2.50;;
2494;SDS011;1258;48.336;14.322;2023-10-09T10:54:20;3.17;;;2.43;;
2494;SDS011;1258;48.336;14.322;2023-10-09T10:57:18;6.77;;;3.27;;
2494;SDS011;1258;48.336;14.322;2023-10-09T10:59:55;4.10;;;2.83;;
2494;SDS011;1258;48.336;14.322;2023-10-09T11:02:31;5.77;;;2.90;;
2494;SDS011;1258;48.336;14.322;2023-10-09T11:05:02;2.50;;;1.87;;
2494;SDS011;1258;48.336;14.322;2023-10-09T11:07:49;6.37;;;2.57;;
2494;SDS011;1258;48.336;14.322;2023-10-09T11:10:23;3.00;;;2.03;;
2494;SDS011;1258;48.336;14.322;2023-10-09T11:12:56;3.20;;;2.10;;
2494;SDS011;1258;48.336;14.322;2023-10-09T11:15:56;3.97;;;2.60;;
2494;SDS011;1258;48.336;14.322;2023-10-09T11:18:40;3.77;;;1.87;;
2494;SDS011;1258;48.336;14.322;2023-10-09T11:21:13;3.63;;;1.60;;
2494;SDS011;1258;48.336;14.322;2023-10-09T11:23:56;3.67;;;1.93;;
2494;SDS011;1258;48.336;14.322;2023-10-09T11:26:24;3.57;;;2.03;;
2494;SDS011;1258;48.336;14.322;2023-10-09T11:29:06;4.63;;;1.93;;
2494;SDS011;1258;48.336;14.322;2023-10-09T11:31:42;3.57;;;2.10;;
2494;SDS011;1258;48.336;14.322;2023-10-09T11:34:22;3.53;;;2.27;;
2494;SDS011;1258;48.336;14.322;2023-10-09T11:36:57;4.50;;;2.40;;
2494;SDS011;1258;48.336;14.322;2023-10-09T11:39:24;3.33;;;1.73;;
2494;SDS011;1258;48.336;14.322;2023-10-09T11:42:03;2.40;;;1.27;;
2494;SDS011;1258;48.336;14.322;2023-10-09T11:44:36;3.40;;;1.90;;
2494;SDS011;1258;48.336;14.322;2023-10-09T11:47:07;3.90;;;2.33;;
2494;SDS011;1258;48.336;14.322;2023-10-09T11:49:50;3.23;;;1.97;;
2494;SDS011;1258;48.336;14.322;2023-10-09T11:55:35;2.60;;;1.50;;
2494;SDS011;1258;48.336;14.322;2023-10-09T11:58:03;4.83;;;1.90;;
2494;SDS011;1258;48.336;14.322;2023-10-09T12:00:32;2.30;;;1.33;;
2494;SDS011;1258;48.336;14.322;2023-10-09T12:03:11;2.10;;;1.30;;
2494;SDS011;1258;48.336;14.322;2023-10-09T12:05:39;2.33;;;1.20;;
2494;SDS011;1258;48.336;14.322;2023-10-09T12:08:10;3.90;;;1.63;;
2494;SDS011;1258;48.336;14.322;2023-10-09T12:10:40;5.00;;;2.70;;
2494;SDS011;1258;48.336;14.322;2023-10-09T12:13:07;6.03;;;2.40;;
2494;SDS011;1258;48.336;14.322;2023-10-09T12:15:34;3.67;;;2.30;;
2494;SDS011;1258;48.336;14.322;2023-10-09T12:18:04;4.83;;;2.27;;
2494;SDS011;1258;48.336;14.322;2023-10-09T12:20:35;3.87;;;2.63;;
2494;SDS011;1258;48.336;14.322;2023-10-09T12:23:03;4.03;;;2.30;;
2494;SDS011;1258;48.336;14.322;2023-10-09T12:25:31;3.10;;;1.87;;
2494;SDS011;1258;48.336;14.322;2023-10-09T12:28:00;5.90;;;2.77;;
2494;SDS011;1258;48.336;14.322;2023-10-09T12:30:27;3.20;;;2.20;;
2494;SDS011;1258;48.336;14.322;2023-10-09T12:32:55;3.90;;;2.30;;
2494;SDS011;1258;48.336;14.322;2023-10-09T12:35:23;4.13;;;2.73;;
2494;SDS011;1258;48.336;14.322;2023-10-09T12:37:51;3.60;;;2.17;;
2494;SDS011;1258;48.336;14.322;2023-10-09T12:40:19;4.20;;;2.40;;
2494;SDS011;1258;48.336;14.322;2023-10-09T12:42:50;5.63;;;1.97;;
2494;SDS011;1258;48.336;14.322;2023-10-09T12:45:19;3.73;;;2.20;;
2494;SDS011;1258;48.336;14.322;2023-10-09T12:47:51;3.60;;;2.57;;
2494;SDS011;1258;48.336;14.322;2023-10-09T12:50:19;2.93;;;2.13;;
2494;SDS011;1258;48.336;14.322;2023-10-09T12:52:54;3.23;;;1.70;;
2494;SDS011;1258;48.336;14.322;2023-10-09T12:55:26;4.90;;;2.20;;
2494;SDS011;1258;48.336;14.322;2023-10-09T12:57:57;4.03;;;2.23;;
2494;SDS011;1258;48.336;14.322;2023-10-09T13:00:31;3.40;;;2.30;;
2494;SDS011;1258;48.336;14.322;2023-10-09T13:03:02;4.23;;;2.40;;
2494;SDS011;1258;48.336;14.322;2023-10-09T13:05:41;3.33;;;2.40;;
2494;SDS011;1258;48.336;14.322;2023-10-09T13:08:22;3.07;;;2.20;;
2494;SDS011;1258;48.336;14.322;2023-10-09T13:10:56;3.37;;;1.90;;
2494;SDS011;1258;48.336;14.322;2023-10-09T13:13:29;2.50;;;1.60;;
2494;SDS011;1258;48.336;14.322;2023-10-09T13:16:09;2.27;;;1.50;;
2494;SDS011;1258;48.336;14.322;2023-10-09T13:18:47;3.17;;;1.87;;
2494;SDS011;1258;48.336;14.322;2023-10-09T13:21:16;3.23;;;1.77;;
2494;SDS011;1258;48.336;14.322;2023-10-09T13:23:45;2.90;;;1.57;;
2494;SDS011;1258;48.336;14.322;2023-10-09T13:26:16;4.23;;;2.53;;
2494;SDS011;1258;48.336;14.322;2023-10-09T13:28:50;4.93;;;3.20;;
2494;SDS011;1258;48.336;14.322;2023-10-09T13:31:18;3.67;;;2.23;;
2494;SDS011;1258;48.336;14.322;2023-10-09T13:33:51;3.73;;;2.57;;
2494;SDS011;1258;48.336;14.322;2023-10-09T13:36:19;5.03;;;2.53;;
2494;SDS011;1258;48.336;14.322;2023-10-09T13:38:55;2.73;;;1.90;;
2494;SDS011;1258;48.336;14.322;2023-10-09T13:41:22;6.13;;;2.63;;
2494;SDS011;1258;48.336;14.322;2023-10-09T13:43:54;3.33;;;2.03;;
2494;SDS011;1258;48.336;14.322;2023-10-09T13:46:22;3.10;;;2.10;;
2494;SDS011;1258;48.336;14.322;2023-10-09T13:48:49;3.83;;;1.93;;
2494;SDS011;1258;48.336;14.322;2023-10-09T13:51:18;3.50;;;2.00;;
2494;SDS011;1258;48.336;14.322;2023-10-09T13:53:49;3.37;;;2.17;;
2494;SDS011;1258;48.336;14.322;2023-10-09T13:56:18;2.30;;;1.87;;
2494;SDS011;1258;48.336;14.322;2023-10-09T13:58:46;3.30;;;2.07;;
2494;SDS011;1258;48.336;14.322;2023-10-09T14:01:14;4.23;;;2.00;;
2494;SDS011;1258;48.336;14.322;2023-10-09T14:03:52;3.00;;;1.83;;
2494;SDS011;1258;48.336;14.322;2023-10-09T14:06:20;3.47;;;1.97;;
2494;SDS011;1258;48.336;14.322;2023-10-09T14:08:55;2.60;;;1.50;;
2494;SDS011;1258;48.336;14.322;2023-10-09T14:11:24;3.63;;;1.87;;
2494;SDS011;1258;48.336;14.322;2023-10-09T14:13:51;3.70;;;2.90;;
2494;SDS011;1258;48.336;14.322;2023-10-09T14:16:18;3.33;;;2.10;;
2494;SDS011;1258;48.336;14.322;2023-10-09T14:18:55;3.10;;;2.03;;
2494;SDS011;1258;48.336;14.322;2023-10-09T14:21:24;4.00;;;2.17;;
2494;SDS011;1258;48.336;14.322;2023-10-09T14:23:53;3.60;;;1.70;;
2494;SDS011;1258;48.336;14.322;2023-10-09T14:26:24;3.17;;;2.10;;
2494;SDS011;1258;48.336;14.322;2023-10-09T14:28:51;4.07;;;2.87;;
2494;SDS011;1258;48.336;14.322;2023-10-09T14:31:18;3.90;;;2.60;;
2494;SDS011;1258;48.336;14.322;2023-10-09T14:33:51;3.47;;;2.20;;
2494;SDS011;1258;48.336;14.322;2023-10-09T14:36:18;4.00;;;2.47;;
2494;SDS011;1258;48.336;14.322;2023-10-09T14:38:46;3.03;;;2.47;;
2494;SDS011;1258;48.336;14.322;2023-10-09T14:41:17;3.40;;;2.60;;
2494;SDS011;1258;48.336;14.322;2023-10-09T14:43:48;4.80;;;3.10;;
2494;SDS011;1258;48.336;14.322;2023-10-09T14:46:16;4.77;;;2.60;;
2494;SDS011;1258;48.336;14.322;2023-10-09T14:48:48;5.07;;;2.70;;
2494;SDS011;1258;48.336;14.322;2023-10-09T14:51:18;6.87;;;3.57;;
2494;SDS011;1258;48.336;14.322;2023-10-09T14:53:51;4.30;;;2.50;;
2494;SDS011;1258;48.336;14.322;2023-10-09T14:56:22;4.47;;;2.87;;
2494;SDS011;1258;48.336;14.322;2023-10-09T14:58:55;4.43;;;2.37;;
2494;SDS011;1258;48.336;14.322;2023-10-09T15:01:23;5.13;;;2.30;;
2494;SDS011;1258;48.336;14.322;2023-10-09T15:03:53;4.30;;;3.07;;
2494;SDS011;1258;48.336;14.322;2023-10-09T15:06:24;3.27;;;2.30;;
2494;SDS011;1258;48.336;14.322;2023-10-09T15:08:55;3.57;;;2.30;;
2494;SDS011;1258;48.336;14.322;2023-10-09T15:11:22;3.10;;;2.23;;
2494;SDS011;1258;48.336;14.322;2023-10-09T15:13:49;5.63;;;2.13;;
2494;SDS011;1258;48.336;14.322;2023-10-09T15:16:19;7.40;;;2.50;;
2494;SDS011;1258;48.336;14.322;2023-10-09T15:18:53;6.73;;;2.97;;
2494;SDS011;1258;48.336;14.322;2023-10-09T15:21:22;4.93;;;3.00;;
2494;SDS011;1258;48.336;14.322;2023-10-09T15:23:51;5.10;;;2.90;;
2494;SDS011;1258;48.336;14.322;2023-10-09T15:26:19;3.70;;;2.60;;
2494;SDS011;1258;48.336;14.322;2023-10-09T15:28:47;4.47;;;2.57;;
2494;SDS011;1258;48.336;14.322;2023-10-09T15:31:14;3.93;;;2.40;;
2494;SDS011;1258;48.336;14.322;2023-10-09T15:33:43;3.60;;;2.23;;
2494;SDS011;1258;48.336;14.322;2023-10-09T15:36:13;3.20;;;1.73;;
2494;SDS011;1258;48.336;14.322;2023-10-09T15:38:42;4.53;;;3.20;;
2494;SDS011;1258;48.336;14.322;2023-10-09T15:41:08;5.50;;;2.70;;
2494;SDS011;1258;48.336;14.322;2023-10-09T15:43:36;3.27;;;2.30;;
2494;SDS011;1258;48.336;14.322;2023-10-09T15:46:05;3.30;;;2.10;;
2494;SDS011;1258;48.336;14.322;2023-10-09T15:48:39;3.53;;;2.23;;
2494;SDS011;1258;48.336;14.322;2023-10-09T15:51:10;4.00;;;1.60;;
2494;SDS011;1258;48.336;14.322;2023-10-09T15:53:39;4.27;;;2.50;;
2494;SDS011;1258;48.336;14.322;2023-10-09T15:56:07;3.13;;;2.17;;